Time;durP1;ratioP1;P1;durP2;ratioP2;P2;SDS_P1;SDS_P2;PMS_P1;PMS_P2;Temp;Humidity;BMP_temperature;BMP_pressure;BME280_temperature;BME280_humidity;BME280_pressure;Samples;Min_cycle;Max_cycle;Signal;HPM_P1;HPM_P2
2021/12/10 00:01:43;;;;;;;;;;;3.10;85.40;;;;;;5018924;28;87228;-49
2021/12/10 00:04:11;;;;;;;;;;;3.10;85.40;;;;;;5021018;28;88066;-52
2021/12/10 00:06:42;;;;;;;;;;;3.10;85.40;;;;;;5017748;28;88236;-47
2021/12/10 00:09:28;;;;;;;;;;;3.10;85.50;;;;;;5023019;28;87179;-53
2021/12/10 00:11:55;;;;;;;;;;;3.10;85.40;;;;;;5022253;28;87258;-51
2021/12/10 00:14:29;;;;;;;;;;;3.10;85.30;;;;;;5021177;28;88291;-49
2021/12/10 00:16:57;;;;;;;;;;;3.20;85.30;;;;;;5018145;28;89171;-52
2021/12/10 00:19:33;;;;;;;;;;;3.10;85.30;;;;;;5024834;28;87474;-51
2021/12/10 00:22:00;;;;;;;;;;;3.10;85.30;;;;;;5021487;28;86439;-50
2021/12/10 00:24:29;;;;;;;;;;;3.20;85.50;;;;;;5022157;28;87149;-48
2021/12/10 00:26:55;;;;;;;;;;;3.20;85.20;;;;;;5018855;28;89744;-49
2021/12/10 00:29:21;;;;;;;;;;;3.10;85.70;;;;;;5018898;28;88141;-49
2021/12/10 00:31:51;;;;;;;;;;;3.20;85.60;;;;;;5019801;28;90303;-50
2021/12/10 00:34:28;;;;;;;;;;;3.20;85.70;;;;;;5020219;28;89717;-48
2021/12/10 00:36:54;;;;;;;;;;;3.20;85.70;;;;;;5019107;28;87161;-51
2021/12/10 00:39:23;;;;;;;;;;;3.20;85.60;;;;;;5023485;28;88295;-50
2021/12/10 00:41:50;;;;;;;;;;;3.20;85.80;;;;;;5018182;28;87143;-49
2021/12/10 00:44:15;;;;;;;;;;;3.20;85.70;;;;;;5018951;28;87733;-49
2021/12/10 00:46:41;;;;;;;;;;;3.20;85.70;;;;;;5018908;28;88785;-48
2021/12/10 00:49:08;;;;;;;;;;;3.20;85.60;;;;;;5017948;28;87155;-49
2021/12/10 00:51:34;;;;;;;;;;;3.30;85.60;;;;;;5022401;28;88812;-50
2021/12/10 00:54:00;;;;;;;;;;;3.30;85.80;;;;;;5020058;28;89172;-51
2021/12/10 00:56:25;;;;;;;;;;;3.30;85.80;;;;;;5020043;28;87182;-51
2021/12/10 00:58:51;;;;;;;;;;;3.30;85.90;;;;;;5020374;28;88039;-48
2021/12/10 01:01:23;;;;;;;;;;;3.30;85.80;;;;;;5022356;28;89010;-49
2021/12/10 01:03:54;;;;;;;;;;;3.30;85.80;;;;;;5018548;28;88941;-49
2021/12/10 01:06:20;;;;;;;;;;;3.30;85.80;;;;;;5019131;28;88110;-49
2021/12/10 01:08:48;;;;;;;;;;;3.30;85.80;;;;;;5018102;28;87271;-49
2021/12/10 01:11:17;;;;;;;;;;;3.30;85.90;;;;;;5021936;28;87767;-53
2021/12/10 01:13:46;;;;;;;;;;;3.30;85.80;;;;;;5017524;28;89166;-52
2021/12/10 01:24:50;;;;;;;;;;;3.30;85.50;;;;;;5023093;28;88062;-48
2021/12/10 01:27:30;;;;;;;;;;;3.30;85.30;;;;;;5017244;28;87709;-49
2021/12/10 01:29:57;;;;;;;;;;;3.30;85.60;;;;;;5017998;28;87120;-48
2021/12/10 01:32:27;;;;;;;;;;;3.30;85.80;;;;;;5020308;28;88799;-49
2021/12/10 01:34:53;;;;;;;;;;;3.30;85.90;;;;;;5017497;28;89112;-49
2021/12/10 01:37:19;;;;;;;;;;;3.30;86.00;;;;;;5022121;28;87962;-50
2021/12/10 01:39:44;;;;;;;;;;;3.40;86.00;;;;;;5021059;28;87197;-48
2021/12/10 01:42:27;;;;;;;;;;;3.40;85.90;;;;;;5019818;28;89414;-51
2021/12/10 01:44:55;;;;;;;;;;;3.40;85.70;;;;;;5016900;28;88132;-49
2021/12/10 01:47:25;;;;;;;;;;;3.40;86.20;;;;;;5024427;28;88575;-51
2021/12/10 01:49:51;;;;;;;;;;;3.30;85.70;;;;;;5019393;28;88454;-49
2021/12/10 01:52:18;;;;;;;;;;;3.30;86.00;;;;;;5021893;28;87521;-49
2021/12/10 01:54:46;;;;;;;;;;;3.30;86.20;;;;;;5020080;28;89758;-51
2021/12/10 01:57:13;;;;;;;;;;;3.40;86.20;;;;;;5017608;28;87297;-47
2021/12/10 01:59:38;;;;;;;;;;;3.40;85.90;;;;;;5020124;28;88009;-49
2021/12/10 02:02:07;;;;;;;;;;;3.40;86.00;;;;;;5021154;28;87362;-48
2021/12/10 02:04:34;;;;;;;;;;;3.40;85.80;;;;;;5016778;28;88477;-48
2021/12/10 02:07:00;;;;;;;;;;;3.40;86.20;;;;;;5020786;28;87685;-49
2021/12/10 02:09:26;;;;;;;;;;;3.40;86.20;;;;;;5021441;28;90253;-52
2021/12/10 02:11:52;;;;;;;;;;;3.40;86.30;;;;;;5019821;28;88467;-50
2021/12/10 02:14:18;;;;;;;;;;;3.50;86.20;;;;;;5018355;28;88586;-48
2021/12/10 02:16:43;;;;;;;;;;;3.40;86.20;;;;;;5017498;28;87199;-47
2021/12/10 02:19:10;;;;;;;;;;;3.40;86.30;;;;;;5016550;28;88443;-48
2021/12/10 02:21:39;;;;;;;;;;;3.50;86.50;;;;;;5020857;28;87677;-48
2021/12/10 02:24:05;;;;;;;;;;;3.40;86.80;;;;;;5016087;28;87202;-48
2021/12/10 02:26:53;;;;;;;;;;;3.40;86.70;;;;;;5021626;28;86919;-50
2021/12/10 02:29:20;;;;;;;;;;;3.40;86.80;;;;;;5008236;28;89806;-49
2021/12/10 02:31:46;;;;;;;;;;;3.50;87.10;;;;;;5020242;28;88877;-48
2021/12/10 02:34:11;;;;;;;;;;;3.50;86.90;;;;;;5015237;28;90578;-49
2021/12/10 02:36:41;;;;;;;;;;;3.50;86.70;;;;;;5016481;28;87153;-49
2021/12/10 02:39:08;;;;;;;;;;;3.40;86.80;;;;;;5017608;28;89140;-49
2021/12/10 02:41:33;;;;;;;;;;;3.50;86.50;;;;;;5015571;28;88140;-48
2021/12/10 02:44:00;;;;;;;;;;;3.50;86.50;;;;;;5019052;28;87827;-48
2021/12/10 02:46:26;;;;;;;;;;;3.50;86.60;;;;;;5019788;28;88099;-49
2021/12/10 02:48:52;;;;;;;;;;;3.50;86.40;;;;;;5019990;28;88167;-51
2021/12/10 02:51:17;;;;;;;;;;;3.50;86.10;;;;;;5023486;28;86460;-49
2021/12/10 02:53:45;;;;;;;;;;;3.50;86.10;;;;;;5018487;28;89489;-49
2021/12/10 02:56:12;;;;;;;;;;;3.50;86.20;;;;;;5016713;28;88591;-50
2021/12/10 02:58:38;;;;;;;;;;;3.50;86.20;;;;;;5019064;28;88134;-47
2021/12/10 03:01:04;;;;;;;;;;;3.50;85.90;;;;;;5017824;28;88016;-50
2021/12/10 03:03:29;;;;;;;;;;;3.50;86.00;;;;;;5017116;28;87146;-47
2021/12/10 03:05:55;;;;;;;;;;;3.50;86.10;;;;;;5016667;28;87732;-48
2021/12/10 03:08:21;;;;;;;;;;;3.50;86.00;;;;;;5015966;28;89609;-48
2021/12/10 03:10:46;;;;;;;;;;;3.50;86.10;;;;;;5015609;28;87167;-48
2021/12/10 03:13:12;;;;;;;;;;;3.50;86.40;;;;;;5020058;28;87695;-52
2021/12/10 03:15:38;;;;;;;;;;;3.50;86.20;;;;;;5021121;28;86433;-51
2021/12/10 03:18:06;;;;;;;;;;;3.50;86.30;;;;;;5019430;28;87185;-50
2021/12/10 03:20:32;;;;;;;;;;;3.50;86.20;;;;;;5016941;28;88258;-47
2021/12/10 03:22:58;;;;;;;;;;;3.50;86.20;;;;;;5023169;28;89706;-49
2021/12/10 03:25:24;;;;;;;;;;;3.50;86.20;;;;;;5022080;28;87614;-51
2021/12/10 03:27:50;;;;;;;;;;;3.60;86.20;;;;;;5020465;28;87724;-48
2021/12/10 03:30:18;;;;;;;;;;;3.50;86.00;;;;;;5019969;28;87121;-50
2021/12/10 03:32:43;;;;;;;;;;;3.50;85.70;;;;;;5022861;28;87512;-49
2021/12/10 03:35:13;;;;;;;;;;;3.50;86.00;;;;;;5024399;28;88022;-49
2021/12/10 03:37:40;;;;;;;;;;;3.50;86.20;;;;;;5022064;28;88686;-49
2021/12/10 03:40:08;;;;;;;;;;;3.60;86.10;;;;;;5020807;28;87079;-47
2021/12/10 03:42:33;;;;;;;;;;;3.50;86.10;;;;;;5021766;28;88585;-49
2021/12/10 03:44:59;;;;;;;;;;;3.60;86.00;;;;;;5023151;28;87633;-49
2021/12/10 03:47:25;;;;;;;;;;;3.60;86.00;;;;;;5021371;28;90817;-49
2021/12/10 03:49:51;;;;;;;;;;;3.60;86.00;;;;;;5021300;28;87134;-50
2021/12/10 03:52:16;;;;;;;;;;;3.60;86.00;;;;;;5020593;28;87416;-48
2021/12/10 03:54:43;;;;;;;;;;;3.60;86.10;;;;;;5021412;28;88107;-47
2021/12/10 03:57:09;;;;;;;;;;;3.60;86.00;;;;;;5024708;28;87193;-48
2021/12/10 03:59:36;;;;;;;;;;;3.60;85.90;;;;;;5021777;28;89540;-47
2021/12/10 04:02:03;;;;;;;;;;;3.60;85.90;;;;;;5019246;28;87247;-47
2021/12/10 04:04:34;;;;;;;;;;;3.60;86.10;;;;;;5022581;28;88207;-48
2021/12/10 04:07:03;;;;;;;;;;;3.60;85.90;;;;;;5022683;28;87797;-51
2021/12/10 04:09:28;;;;;;;;;;;3.60;86.00;;;;;;5019674;28;87249;-47
2021/12/10 04:11:55;;;;;;;;;;;3.60;85.90;;;;;;5019627;28;88100;-49
2021/12/10 04:14:21;;;;;;;;;;;3.60;85.90;;;;;;5018010;28;89877;-50
2021/12/10 04:16:54;;;;;;;;;;;3.60;85.80;;;;;;5018823;28;87138;-46
2021/12/10 04:19:19;;;;;;;;;;;3.60;85.70;;;;;;5023670;28;89027;-50
2021/12/10 04:21:45;;;;;;;;;;;3.70;85.70;;;;;;5019356;28;88258;-48
2021/12/10 04:24:13;;;;;;;;;;;3.60;85.80;;;;;;5018089;28;87449;-47
2021/12/10 04:26:39;;;;;;;;;;;3.60;85.90;;;;;;5020812;28;87659;-47
2021/12/10 04:29:05;;;;;;;;;;;3.70;85.80;;;;;;5021602;28;86406;-47
2021/12/10 04:31:30;;;;;;;;;;;3.70;85.60;;;;;;5020672;28;87277;-49
2021/12/10 04:33:56;;;;;;;;;;;3.60;85.70;;;;;;5021391;28;88310;-50
2021/12/10 04:36:22;;;;;;;;;;;3.70;85.90;;;;;;5020981;28;88153;-49
2021/12/10 04:38:47;;;;;;;;;;;3.70;85.90;;;;;;5022466;28;87477;-48
2021/12/10 04:41:13;;;;;;;;;;;3.70;86.00;;;;;;5023274;28;88872;-50
2021/12/10 04:43:40;;;;;;;;;;;3.70;86.00;;;;;;5017942;28;88570;-48
2021/12/10 04:46:06;;;;;;;;;;;3.70;85.90;;;;;;5022031;28;88316;-50
2021/12/10 04:48:42;;;;;;;;;;;3.70;85.90;;;;;;5021424;28;87215;-48
2021/12/10 04:51:07;;;;;;;;;;;3.70;85.90;;;;;;5020094;28;88564;-48
2021/12/10 04:53:33;;;;;;;;;;;3.70;86.00;;;;;;5019574;28;88840;-48
2021/12/10 04:55:58;;;;;;;;;;;3.70;85.90;;;;;;5018922;28;87176;-48
2021/12/10 04:58:24;;;;;;;;;;;3.70;85.90;;;;;;5020123;28;87309;-49
2021/12/10 05:00:50;;;;;;;;;;;3.70;86.00;;;;;;5022732;28;88611;-48
2021/12/10 05:03:16;;;;;;;;;;;3.70;86.20;;;;;;5021840;28;87425;-48
2021/12/10 05:05:42;;;;;;;;;;;3.70;86.20;;;;;;5021171;28;88654;-49
2021/12/10 05:08:09;;;;;;;;;;;3.70;86.00;;;;;;5022173;28;88182;-47
2021/12/10 05:10:34;;;;;;;;;;;3.70;85.70;;;;;;5020627;28;88971;-50
2021/12/10 05:13:00;;;;;;;;;;;3.70;85.80;;;;;;5021965;28;88699;-47
2021/12/10 05:15:27;;;;;;;;;;;3.70;85.90;;;;;;5019175;28;87891;-51
2021/12/10 05:17:53;;;;;;;;;;;3.70;85.80;;;;;;5022624;28;87567;-48
2021/12/10 05:20:28;;;;;;;;;;;3.70;85.50;;;;;;5020690;28;87132;-49
2021/12/10 05:22:53;;;;;;;;;;;3.70;85.70;;;;;;5024088;28;87184;-47
2021/12/10 05:25:19;;;;;;;;;;;3.70;85.60;;;;;;5019459;28;89987;-48
2021/12/10 05:27:44;;;;;;;;;;;3.80;85.70;;;;;;5019985;28;87242;-47
2021/12/10 05:30:11;;;;;;;;;;;3.80;85.60;;;;;;5021079;28;88753;-47
2021/12/10 05:32:37;;;;;;;;;;;3.70;85.50;;;;;;5018248;28;88255;-48
2021/12/10 05:35:04;;;;;;;;;;;3.80;85.80;;;;;;5018908;28;87212;-47
2021/12/10 05:37:29;;;;;;;;;;;3.70;85.90;;;;;;5017076;28;87823;-48
2021/12/10 05:39:55;;;;;;;;;;;3.80;86.00;;;;;;5017499;28;88632;-48
2021/12/10 05:42:20;;;;;;;;;;;3.80;85.80;;;;;;5020321;28;86550;-51
2021/12/10 05:44:46;;;;;;;;;;;3.80;86.00;;;;;;5024276;28;87176;-49
2021/12/10 05:47:11;;;;;;;;;;;3.80;85.80;;;;;;5020759;28;87159;-48
2021/12/10 05:49:37;;;;;;;;;;;3.80;85.60;;;;;;5020679;28;88135;-51
2021/12/10 05:52:03;;;;;;;;;;;3.80;85.60;;;;;;5019839;28;89630;-49
2021/12/10 05:54:29;;;;;;;;;;;3.80;85.80;;;;;;5019011;28;87601;-47
2021/12/10 05:56:54;;;;;;;;;;;3.80;85.50;;;;;;5016598;28;89526;-48
2021/12/10 05:59:20;;;;;;;;;;;3.80;85.50;;;;;;5017655;28;88217;-49
2021/12/10 06:01:45;;;;;;;;;;;3.80;85.40;;;;;;5019140;28;87223;-48
2021/12/10 06:04:11;;;;;;;;;;;3.80;85.50;;;;;;5020393;28;87191;-49
2021/12/10 06:06:37;;;;;;;;;;;3.80;85.40;;;;;;5023875;28;87461;-48
2021/12/10 06:09:04;;;;;;;;;;;3.80;85.70;;;;;;5020460;28;88246;-49
2021/12/10 06:11:30;;;;;;;;;;;3.80;85.50;;;;;;5018739;28;88132;-50
2021/12/10 06:13:56;;;;;;;;;;;3.80;85.60;;;;;;5020037;28;88091;-48
2021/12/10 06:16:21;;;;;;;;;;;3.80;85.40;;;;;;5020808;28;88808;-48
2021/12/10 06:18:47;;;;;;;;;;;3.80;85.60;;;;;;5017198;28;89336;-52
2021/12/10 06:21:13;;;;;;;;;;;3.80;85.30;;;;;;5016871;28;87167;-51
2021/12/10 06:23:39;;;;;;;;;;;3.80;85.40;;;;;;5016722;28;87369;-48
2021/12/10 06:26:05;;;;;;;;;;;3.80;85.40;;;;;;5015987;28;87498;-50
2021/12/10 06:28:31;;;;;;;;;;;3.80;85.70;;;;;;5019824;28;87134;-51
2021/12/10 06:30:57;;;;;;;;;;;3.80;85.60;;;;;;5017296;28;86850;-48
2021/12/10 06:33:28;;;;;;;;;;;3.80;85.60;;;;;;5017802;28;87135;-49
2021/12/10 06:35:55;;;;;;;;;;;3.80;85.60;;;;;;5019257;28;89660;-48
2021/12/10 06:38:22;;;;;;;;;;;3.90;85.60;;;;;;5016575;28;89367;-49
2021/12/10 06:40:48;;;;;;;;;;;3.90;85.50;;;;;;5017105;28;87212;-49
2021/12/10 06:43:14;;;;;;;;;;;3.90;85.60;;;;;;5017610;28;87841;-52
2021/12/10 06:45:40;;;;;;;;;;;3.80;85.70;;;;;;5016759;28;87712;-50
2021/12/10 06:48:07;;;;;;;;;;;3.90;85.40;;;;;;5017558;28;87172;-48
2021/12/10 06:50:34;;;;;;;;;;;3.90;85.50;;;;;;5018832;28;87206;-48
2021/12/10 06:53:00;;;;;;;;;;;3.90;85.50;;;;;;5019368;28;88549;-51
2021/12/10 06:55:26;;;;;;;;;;;3.90;85.60;;;;;;5017285;28;88749;-52
2021/12/10 06:57:52;;;;;;;;;;;3.90;85.50;;;;;;5018816;28;88050;-49
2021/12/10 07:00:23;;;;;;;;;;;3.90;85.50;;;;;;5016148;28;88049;-50
2021/12/10 07:02:49;;;;;;;;;;;3.90;85.60;;;;;;5019613;28;88850;-51
2021/12/10 07:05:15;;;;;;;;;;;3.90;85.50;;;;;;5017723;28;88044;-49
2021/12/10 07:07:41;;;;;;;;;;;3.90;85.50;;;;;;5015237;28;88569;-48
2021/12/10 07:10:07;;;;;;;;;;;3.90;85.30;;;;;;5020578;28;88661;-50
2021/12/10 07:12:36;;;;;;;;;;;3.90;85.50;;;;;;5019681;28;87402;-52
2021/12/10 07:15:03;;;;;;;;;;;3.90;85.50;;;;;;5017527;28;87612;-49
2021/12/10 07:17:29;;;;;;;;;;;3.90;85.50;;;;;;5016490;28;89567;-51
2021/12/10 07:19:54;;;;;;;;;;;4.00;85.60;;;;;;5017659;28;86498;-48
2021/12/10 07:22:20;;;;;;;;;;;3.90;85.40;;;;;;5017556;28;87219;-50
2021/12/10 07:24:46;;;;;;;;;;;4.00;85.50;;;;;;5018196;28;87406;-52
2021/12/10 07:27:12;;;;;;;;;;;4.00;85.40;;;;;;5019135;28;88204;-52
2021/12/10 07:29:40;;;;;;;;;;;4.00;85.30;;;;;;5018666;28;88823;-51
2021/12/10 07:32:06;;;;;;;;;;;4.00;85.50;;;;;;5019315;28;90128;-52
2021/12/10 07:34:32;;;;;;;;;;;4.00;85.20;;;;;;5016078;28;89109;-53
2021/12/10 07:36:57;;;;;;;;;;;4.00;85.50;;;;;;5015730;28;88261;-51
2021/12/10 07:39:23;;;;;;;;;;;4.00;85.70;;;;;;5017439;28;87234;-49
2021/12/10 07:41:49;;;;;;;;;;;4.00;85.50;;;;;;5018581;28;87138;-49
2021/12/10 07:44:14;;;;;;;;;;;4.00;85.70;;;;;;5019765;28;87089;-51
2021/12/10 07:46:40;;;;;;;;;;;4.00;85.70;;;;;;5019229;28;87884;-53
2021/12/10 07:49:13;;;;;;;;;;;4.00;85.80;;;;;;5018361;28;88796;-49
2021/12/10 07:51:39;;;;;;;;;;;4.00;85.70;;;;;;5015990;28;88640;-49
2021/12/10 07:54:05;;;;;;;;;;;4.10;85.80;;;;;;5020111;28;87179;-50
2021/12/10 07:56:31;;;;;;;;;;;4.10;85.90;;;;;;5017995;28;87649;-50
2021/12/10 07:58:57;;;;;;;;;;;4.00;85.90;;;;;;5018270;28;87218;-49
2021/12/10 08:01:26;;;;;;;;;;;4.10;85.90;;;;;;5018842;28;87204;-50
2021/12/10 08:03:52;;;;;;;;;;;4.10;85.80;;;;;;5019151;28;89391;-48
2021/12/10 08:06:20;;;;;;;;;;;4.10;85.80;;;;;;5021078;28;87171;-50
2021/12/10 08:08:46;;;;;;;;;;;4.10;85.80;;;;;;5021985;28;89554;-50
2021/12/10 08:11:12;;;;;;;;;;;4.10;85.70;;;;;;5021628;28;89858;-50
2021/12/10 08:13:37;;;;;;;;;;;4.20;85.60;;;;;;5022275;28;87156;-49
2021/12/10 08:16:03;;;;;;;;;;;4.20;85.70;;;;;;5024591;28;88147;-51
2021/12/10 08:18:29;;;;;;;;;;;4.10;85.70;;;;;;5021668;28;87130;-51
2021/12/10 08:20:55;;;;;;;;;;;4.20;85.90;;;;;;5020955;28;87173;-51
2021/12/10 08:23:20;;;;;;;;;;;4.20;85.90;;;;;;5019364;28;87911;-49
2021/12/10 08:25:47;;;;;;;;;;;4.20;86.00;;;;;;5018999;28;87180;-49
2021/12/10 08:28:13;;;;;;;;;;;4.20;85.90;;;;;;5018404;28;88895;-49
2021/12/10 08:30:39;;;;;;;;;;;4.20;85.90;;;;;;5018683;28;88051;-50
2021/12/10 08:33:12;;;;;;;;;;;4.20;86.00;;;;;;5019004;28;86414;-49
2021/12/10 08:35:37;;;;;;;;;;;4.20;86.00;;;;;;5021969;28;88191;-48
2021/12/10 08:38:03;;;;;;;;;;;4.20;85.90;;;;;;5022139;28;88296;-48
2021/12/10 08:40:31;;;;;;;;;;;4.20;85.90;;;;;;5017813;28;88079;-48
2021/12/10 08:42:57;;;;;;;;;;;4.20;85.80;;;;;;5020465;28;88847;-51
2021/12/10 08:45:23;;;;;;;;;;;4.20;86.00;;;;;;5019128;28;88470;-48
2021/12/10 08:47:49;;;;;;;;;;;4.20;85.90;;;;;;5018659;28;90909;-49
2021/12/10 08:50:22;;;;;;;;;;;4.30;86.10;;;;;;5017566;28;88219;-48
2021/12/10 08:52:54;;;;;;;;;;;4.30;86.20;;;;;;5020974;28;87248;-49
2021/12/10 08:55:20;;;;;;;;;;;4.30;86.20;;;;;;5020608;28;88536;-49
2021/12/10 08:57:46;;;;;;;;;;;4.20;86.10;;;;;;5021741;28;87338;-49
2021/12/10 09:00:12;;;;;;;;;;;4.30;86.10;;;;;;5024536;28;87221;-53
2021/12/10 09:02:38;;;;;;;;;;;4.20;86.20;;;;;;5021839;28;88137;-51
2021/12/10 09:05:05;;;;;;;;;;;4.30;86.30;;;;;;5019360;28;89744;-48
2021/12/10 09:07:31;;;;;;;;;;;4.30;86.30;;;;;;5022061;28;87151;-50
2021/12/10 09:09:56;;;;;;;;;;;4.30;86.30;;;;;;5020556;28;89706;-48
2021/12/10 09:12:25;;;;;;;;;;;4.30;86.20;;;;;;5021308;28;87144;-50
2021/12/10 09:14:53;;;;;;;;;;;4.30;86.30;;;;;;5019984;28;88438;-50
2021/12/10 09:17:23;;;;;;;;;;;4.30;86.20;;;;;;5016864;28;90801;-50
2021/12/10 09:19:48;;;;;;;;;;;4.30;86.20;;;;;;5021622;28;87222;-49
2021/12/10 09:22:14;;;;;;;;;;;4.30;86.30;;;;;;5018121;28;86595;-48
2021/12/10 09:24:40;;;;;;;;;;;4.40;86.40;;;;;;5017362;28;87147;-49
2021/12/10 09:27:06;;;;;;;;;;;4.30;86.30;;;;;;5017174;28;88774;-52
2021/12/10 09:29:35;;;;;;;;;;;4.40;86.40;;;;;;5017503;28;89172;-49
2021/12/10 09:32:04;;;;;;;;;;;4.40;86.40;;;;;;5017632;28;87159;-49
2021/12/10 09:34:29;;;;;;;;;;;4.40;86.40;;;;;;5019776;28;89030;-50
2021/12/10 09:36:55;;;;;;;;;;;4.40;86.50;;;;;;5018796;28;87119;-50
2021/12/10 09:39:22;;;;;;;;;;;4.40;86.50;;;;;;5019834;28;87112;-52
2021/12/10 09:41:48;;;;;;;;;;;4.40;86.40;;;;;;5021385;28;88729;-49
2021/12/10 09:44:15;;;;;;;;;;;4.40;86.50;;;;;;5018628;28;87263;-48
2021/12/10 09:46:41;;;;;;;;;;;4.40;86.50;;;;;;5017682;28;88982;-49
2021/12/10 09:49:08;;;;;;;;;;;4.40;86.60;;;;;;5016595;28;89734;-48
2021/12/10 09:51:37;;;;;;;;;;;4.40;86.60;;;;;;5020031;28;87160;-47
2021/12/10 09:54:07;;;;;;;;;;;4.50;86.70;;;;;;5018566;28;88146;-49
2021/12/10 09:56:32;;;;;;;;;;;4.50;86.60;;;;;;5019102;28;89451;-49
2021/12/10 09:58:58;;;;;;;;;;;4.50;86.80;;;;;;5018882;28;87154;-47
2021/12/10 10:01:25;;;;;;;;;;;4.50;86.70;;;;;;5018184;28;87357;-47
2021/12/10 10:03:59;;;;;;;;;;;4.50;86.60;;;;;;5023624;28;88519;-49
2021/12/10 10:06:24;;;;;;;;;;;4.50;86.80;;;;;;5017845;28;89130;-52
2021/12/10 10:08:51;;;;;;;;;;;4.50;86.70;;;;;;5016726;28;88147;-48
2021/12/10 10:11:19;;;;;;;;;;;4.50;86.60;;;;;;5021238;28;86403;-49
2021/12/10 10:13:46;;;;;;;;;;;4.50;86.70;;;;;;5016992;28;88425;-49
2021/12/10 10:16:12;;;;;;;;;;;4.50;86.70;;;;;;5020321;28;88151;-50
2021/12/10 10:18:39;;;;;;;;;;;4.50;86.80;;;;;;5019719;28;88161;-51
2021/12/10 10:21:09;;;;;;;;;;;4.50;86.60;;;;;;5020535;28;88585;-52
2021/12/10 10:23:37;;;;;;;;;;;4.60;86.60;;;;;;5020732;28;88236;-49
2021/12/10 10:26:05;;;;;;;;;;;4.60;86.70;;;;;;5020454;28;87142;-48
2021/12/10 10:28:31;;;;;;;;;;;4.60;86.80;;;;;;5019507;28;90238;-48
2021/12/10 10:31:01;;;;;;;;;;;4.60;86.90;;;;;;5020539;28;87120;-50
2021/12/10 10:33:31;;;;;;;;;;;4.60;86.80;;;;;;5019653;28;88749;-49
2021/12/10 10:35:58;;;;;;;;;;;4.60;86.70;;;;;;5020303;28;87180;-49
2021/12/10 10:38:24;;;;;;;;;;;4.60;86.70;;;;;;5017167;28;87215;-49
2021/12/10 10:40:57;;;;;;;;;;;4.60;86.80;;;;;;5016567;28;87231;-48
2021/12/10 10:43:24;;;;;;;;;;;4.70;86.80;;;;;;5018542;28;89432;-50
2021/12/10 10:45:50;;;;;;;;;;;4.60;86.70;;;;;;5017998;28;87187;-50
2021/12/10 10:48:16;;;;;;;;;;;4.60;86.80;;;;;;5019430;28;89326;-50
2021/12/10 10:50:53;;;;;;;;;;;4.60;86.80;;;;;;5016293;28;87156;-48
2021/12/10 10:53:20;;;;;;;;;;;4.70;87.50;;;;;;5015833;28;89038;-50
2021/12/10 10:55:49;;;;;;;;;;;4.70;87.00;;;;;;5020195;28;89170;-49
2021/12/10 10:58:15;;;;;;;;;;;4.70;86.90;;;;;;5016526;28;87176;-49
2021/12/10 11:00:46;;;;;;;;;;;4.70;86.80;;;;;;5015329;28;88730;-48
2021/12/10 11:03:17;;;;;;;;;;;4.70;86.90;;;;;;5016276;28;88768;-50
2021/12/10 11:05:44;;;;;;;;;;;4.70;86.80;;;;;;5020173;28;87957;-50
2021/12/10 11:08:10;;;;;;;;;;;4.70;86.90;;;;;;5019736;28;88718;-48
2021/12/10 11:10:41;;;;;;;;;;;4.80;86.80;;;;;;5017506;28;87316;-49
2021/12/10 11:13:21;;;;;;;;;;;4.70;86.90;;;;;;5018526;28;87507;-49
2021/12/10 11:16:04;;;;;;;;;;;4.80;87.00;;;;;;5019428;28;89456;-51
2021/12/10 11:18:38;;;;;;;;;;;4.80;87.00;;;;;;5015798;28;87239;-48
2021/12/10 11:21:04;;;;;;;;;;;4.80;87.00;;;;;;5016127;28;87986;-48
2021/12/10 11:23:31;;;;;;;;;;;4.80;87.00;;;;;;5015128;28;87279;-49
2021/12/10 11:25:56;;;;;;;;;;;4.80;86.90;;;;;;5019832;28;86431;-51
2021/12/10 11:28:26;;;;;;;;;;;4.80;86.90;;;;;;5018528;28;88177;-50
2021/12/10 11:30:56;;;;;;;;;;;4.80;87.00;;;;;;5022290;28;88446;-50
2021/12/10 11:33:23;;;;;;;;;;;4.80;87.00;;;;;;5017420;28;88980;-51
2021/12/10 11:35:51;;;;;;;;;;;4.80;87.00;;;;;;5018067;28;89364;-50
2021/12/10 11:38:17;;;;;;;;;;;4.80;86.90;;;;;;5016885;28;87824;-48
2021/12/10 11:40:52;;;;;;;;;;;4.90;87.00;;;;;;5016566;28;87667;-48
2021/12/10 11:48:42;;;;;;;;;;;4.90;87.00;;;;;;5020759;28;88632;-49
2021/12/10 11:51:10;;;;;;;;;;;4.90;87.00;;;;;;5022782;28;87544;-50
2021/12/10 11:53:47;;;;;;;;;;;4.90;87.00;;;;;;5022219;28;87188;-49
2021/12/10 11:56:21;;;;;;;;;;;4.90;87.00;;;;;;5021600;28;88095;-48
2021/12/10 11:59:13;;;;;;;;;;;4.90;86.90;;;;;;5019542;28;88091;-48
2021/12/10 12:01:45;;;;;;;;;;;4.90;86.90;;;;;;5016779;28;89783;-50
2021/12/10 12:04:14;;;;;;;;;;;4.90;86.90;;;;;;5019604;28;88173;-49
2021/12/10 12:06:40;;;;;;;;;;;4.90;86.90;;;;;;5022294;28;87101;-49
2021/12/10 12:09:05;;;;;;;;;;;5.00;86.90;;;;;;5022950;28;88400;-49
2021/12/10 12:11:31;;;;;;;;;;;5.00;86.90;;;;;;5020249;28;88556;-49
2021/12/10 12:13:58;;;;;;;;;;;5.00;86.80;;;;;;5019471;28;87819;-49
2021/12/10 12:16:27;;;;;;;;;;;5.00;86.90;;;;;;5024714;28;88926;-48
2021/12/10 12:18:54;;;;;;;;;;;5.00;86.90;;;;;;5022944;28;87216;-48
2021/12/10 12:26:49;;;;;;;;;;;5.00;86.80;;;;;;5018102;28;87156;-52
2021/12/10 12:29:15;;;;;;;;;;;5.00;86.90;;;;;;5023243;28;87680;-50
2021/12/10 12:31:51;;;;;;;;;;;5.00;87.00;;;;;;5021263;28;87440;-49
2021/12/10 12:34:17;;;;;;;;;;;5.00;86.80;;;;;;5020429;28;87145;-48
2021/12/10 12:36:51;;;;;;;;;;;5.10;86.80;;;;;;5021270;28;87143;-49
2021/12/10 12:39:31;;;;;;;;;;;5.10;86.90;;;;;;5022658;28;88346;-49
2021/12/10 12:41:58;;;;;;;;;;;5.10;87.00;;;;;;5020112;28;87090;-49
2021/12/10 12:44:26;;;;;;;;;;;5.10;87.00;;;;;;5017948;28;89284;-48
2021/12/10 12:47:00;;;;;;;;;;;5.10;86.90;;;;;;5021956;28;88155;-52
2021/12/10 12:49:26;;;;;;;;;;;5.10;86.90;;;;;;5018432;28;89500;-47
2021/12/10 12:52:07;;;;;;;;;;;5.10;89.80;;;;;;5018457;28;88007;-47
2021/12/10 12:54:33;;;;;;;;;;;5.00;90.10;;;;;;5020304;28;87239;-47
2021/12/10 12:57:00;;;;;;;;;;;4.90;90.20;;;;;;5020207;28;87167;-49
2021/12/10 12:59:27;;;;;;;;;;;4.90;90.10;;;;;;5018487;28;89469;-63
2021/12/10 13:01:55;;;;;;;;;;;4.90;90.50;;;;;;5022458;28;87185;-47
2021/12/10 13:04:26;;;;;;;;;;;4.90;90.90;;;;;;5020786;28;89119;-50
2021/12/10 13:06:55;;;;;;;;;;;4.90;90.60;;;;;;5022396;28;86836;-54
2021/12/10 13:09:38;;;;;;;;;;;5.00;90.50;;;;;;5017740;28;88230;-63
2021/12/10 13:12:09;;;;;;;;;;;5.00;91.30;;;;;;5019750;28;89692;-69
2021/12/10 13:14:46;;;;;;;;;;;5.00;91.40;;;;;;5019853;28;88105;-69
2021/12/10 13:17:13;;;;;;;;;;;5.10;90.70;;;;;;5020332;28;88438;-65
2021/12/10 13:19:39;;;;;;;;;;;5.10;91.00;;;;;;5018604;28;88574;-68
2021/12/10 13:22:07;;;;;;;;;;;5.20;91.00;;;;;;5022663;28;87153;-62
2021/12/10 13:24:34;;;;;;;;;;;5.20;91.70;;;;;;5018639;28;89233;-60
2021/12/10 13:27:00;;;;;;;;;;;5.30;92.60;;;;;;5017938;28;87212;-63
2021/12/10 13:29:26;;;;;;;;;;;5.40;91.90;;;;;;5017374;28;87257;-65
2021/12/10 13:31:52;;;;;;;;;;;5.40;91.30;;;;;;5019275;28;87339;-61
2021/12/10 13:34:18;;;;;;;;;;;5.40;91.30;;;;;;5017316;28;87153;-55
2021/12/10 13:36:43;;;;;;;;;;;5.40;91.40;;;;;;5017985;28;87689;-60
2021/12/10 13:39:10;;;;;;;;;;;5.50;91.30;;;;;;5017391;28;89218;-62
2021/12/10 13:41:36;;;;;;;;;;;5.50;91.20;;;;;;5016893;28;87204;-68
2021/12/10 13:44:07;;;;;;;;;;;5.50;91.20;;;;;;5019109;28;88218;-63
2021/12/10 13:46:46;;;;;;;;;;;5.60;91.30;;;;;;5021076;28;87210;-62
2021/12/10 13:49:11;;;;;;;;;;;5.60;91.30;;;;;;5017604;28;88613;-65
2021/12/10 13:51:41;;;;;;;;;;;5.70;91.00;;;;;;5018376;28;87716;-74
2021/12/10 13:54:10;;;;;;;;;;;6.20;90.70;;;;;;5020528;28;87151;-74
2021/12/10 13:56:36;;;;;;;;;;;6.80;89.90;;;;;;5018350;28;88544;-75
2021/12/10 13:59:05;;;;;;;;;;;7.20;88.30;;;;;;5017192;28;87206;-66
2021/12/10 14:01:40;;;;;;;;;;;7.40;87.00;;;;;;5021515;28;87720;-66
2021/12/10 14:04:10;;;;;;;;;;;7.00;87.30;;;;;;5014792;28;88127;-64
2021/12/10 14:06:36;;;;;;;;;;;6.70;88.00;;;;;;5019252;28;88310;-64
2021/12/10 14:09:15;;;;;;;;;;;6.50;88.50;;;;;;5017951;28;87195;-63
2021/12/10 14:11:53;;;;;;;;;;;6.40;88.80;;;;;;5019719;28;89369;-62
2021/12/10 14:14:27;;;;;;;;;;;6.30;89.00;;;;;;5016918;28;87165;-62
2021/12/10 14:16:54;;;;;;;;;;;6.10;89.10;;;;;;5019919;28;87611;-63
2021/12/10 14:19:38;;;;;;;;;;;6.10;89.30;;;;;;5017928;28;87176;-63
2021/12/10 14:22:05;;;;;;;;;;;6.00;89.20;;;;;;5020021;28;86709;-61
2021/12/10 14:24:44;;;;;;;;;;;6.00;90.40;;;;;;5020719;28;87170;-63
2021/12/10 14:27:10;;;;;;;;;;;6.00;90.10;;;;;;5016523;28;88826;-64
2021/12/10 14:29:35;;;;;;;;;;;5.90;90.00;;;;;;5018557;28;88117;-64
2021/12/10 14:32:01;;;;;;;;;;;5.90;90.00;;;;;;5016245;28;88231;-65
2021/12/10 14:34:27;;;;;;;;;;;5.90;90.00;;;;;;5017459;28;87174;-64
2021/12/10 14:37:04;;;;;;;;;;;5.90;89.90;;;;;;5018597;28;87606;-64
2021/12/10 14:39:30;;;;;;;;;;;5.90;89.90;;;;;;5016074;28;87936;-63
2021/12/10 14:41:56;;;;;;;;;;;5.90;88.80;;;;;;5017078;28;87225;-66
2021/12/10 14:44:26;;;;;;;;;;;5.90;89.40;;;;;;5016173;28;88906;-64
2021/12/10 14:46:59;;;;;;;;;;;6.00;89.20;;;;;;5016474;28;86951;-65
2021/12/10 14:49:33;;;;;;;;;;;6.00;89.00;;;;;;5018630;28;87198;-58
2021/12/10 14:52:04;;;;;;;;;;;6.00;88.70;;;;;;5022909;28;87488;-69
2021/12/10 14:54:30;;;;;;;;;;;6.10;88.00;;;;;;5018545;28;88124;-59